createdAt,value
2018-09-23T00:01:54.968Z,8.73
2018-09-23T00:06:59.868Z,9.07
2018-09-23T00:12:04.768Z,9.53
2018-09-23T00:17:09.716Z,9.23
2018-09-23T00:22:14.742Z,8.93
2018-09-23T00:27:19.776Z,9.27
2018-09-23T00:32:25.550Z,9.60
2018-09-23T00:37:30.626Z,8.53
2018-09-23T00:42:35.536Z,9.40
2018-09-23T00:47:40.393Z,9.13
2018-09-23T00:52:45.594Z,8.83
2018-09-23T00:57:50.580Z,8.83
2018-09-23T01:02:55.529Z,8.90
2018-09-23T01:08:00.425Z,9.20
2018-09-23T01:13:05.468Z,9.73
2018-09-23T01:18:10.513Z,9.80
2018-09-23T01:23:15.489Z,10.83
2018-09-23T01:28:20.532Z,10.17
2018-09-23T01:33:25.620Z,9.77
2018-09-23T01:38:30.484Z,10.07
2018-09-23T01:43:35.483Z,10.43
2018-09-23T01:48:40.554Z,10.77
2018-09-23T01:53:45.461Z,10.40
2018-09-23T01:58:50.524Z,11.13
2018-09-23T02:03:55.536Z,10.43
2018-09-23T02:09:00.421Z,11.83
2018-09-23T02:14:05.402Z,11.37
2018-09-23T02:19:10.288Z,11.80
2018-09-23T02:24:15.382Z,10.87
2018-09-23T02:29:20.365Z,10.00
2018-09-23T02:34:25.481Z,10.07
2018-09-23T02:39:30.562Z,10.90
2018-09-23T02:44:35.431Z,10.60
2018-09-23T02:49:40.485Z,10.87
2018-09-23T02:54:45.433Z,11.50
2018-09-23T02:59:50.379Z,11.67
2018-09-23T03:04:55.338Z,10.67
2018-09-23T03:10:00.288Z,10.67
2018-09-23T03:15:05.318Z,11.13
2018-09-23T03:20:10.291Z,11.07
2018-09-23T03:25:15.250Z,10.30
2018-09-23T03:30:20.204Z,10.77
2018-09-23T03:35:25.325Z,11.70
2018-09-23T03:40:30.170Z,12.17
2018-09-23T03:45:35.115Z,11.33
2018-09-23T03:50:40.273Z,11.73
2018-09-23T03:55:45.162Z,12.17
2018-09-23T04:00:50.228Z,11.70
2018-09-23T04:05:55.322Z,11.73
2018-09-23T04:11:00.187Z,12.07
2018-09-23T04:16:05.225Z,13.37
2018-09-23T04:21:10.117Z,13.23
2018-09-23T04:26:15.097Z,13.03
2018-09-23T04:31:20.072Z,12.83
2018-09-23T04:36:25.139Z,12.90
2018-09-23T04:41:30.057Z,12.13
2018-09-23T04:46:35.041Z,11.80
2018-09-23T04:51:40.095Z,12.73
2018-09-23T04:56:45.092Z,12.20
2018-09-23T05:01:49.996Z,12.90
2018-09-23T05:06:54.844Z,12.00
2018-09-23T05:11:59.762Z,12.43
2018-09-23T05:17:04.805Z,11.83
2018-09-23T05:22:09.913Z,12.20
2018-09-23T05:27:14.965Z,13.53
2018-09-23T05:32:19.947Z,12.07
2018-09-23T05:37:24.971Z,13.13
2018-09-23T05:42:29.993Z,12.93
2018-09-23T05:47:34.962Z,13.78
2018-09-23T05:52:39.855Z,12.13
2018-09-23T05:57:44.883Z,12.20
2018-09-23T06:02:49.757Z,12.63
2018-09-23T06:07:54.638Z,13.07
2018-09-23T06:12:59.606Z,13.10
2018-09-23T06:18:04.556Z,12.37
2018-09-23T06:23:09.896Z,12.87
2018-09-23T06:28:14.765Z,12.63
2018-09-23T06:33:19.744Z,13.73
2018-09-23T06:38:24.689Z,12.00
2018-09-23T06:43:29.691Z,12.27
2018-09-23T06:48:34.594Z,11.50
2018-09-23T06:53:39.484Z,11.87
2018-09-23T06:58:44.349Z,10.73
2018-09-23T07:03:49.313Z,11.47
2018-09-23T07:08:54.216Z,11.10
2018-09-23T07:13:59.124Z,11.23
2018-09-23T07:19:04.022Z,11.43
2018-09-23T07:24:08.982Z,10.70
2018-09-23T07:29:14.348Z,11.47
2018-09-23T07:34:19.445Z,11.00
2018-09-23T07:39:24.474Z,11.73
2018-09-23T07:44:29.524Z,11.93
2018-09-23T07:49:34.608Z,12.67
2018-09-23T07:54:39.627Z,12.33
2018-09-23T07:59:44.906Z,12.47
2018-09-23T08:04:49.809Z,14.00
2018-09-23T08:09:54.702Z,14.50
2018-09-23T08:14:59.776Z,14.53
2018-09-23T08:20:04.750Z,13.97
2018-09-23T08:25:09.814Z,13.10
2018-09-23T08:30:14.743Z,13.27
2018-09-23T08:35:19.820Z,12.63
2018-09-23T08:40:24.902Z,11.63
2018-09-23T08:45:30.343Z,12.67
2018-09-23T08:50:35.312Z,13.20
2018-09-23T08:55:40.278Z,13.70
2018-09-23T09:00:46.285Z,15.47
2018-09-23T09:05:51.249Z,13.63
2018-09-23T09:10:56.238Z,15.10
2018-09-23T09:16:01.175Z,13.63
2018-09-23T09:21:06.330Z,15.07
2018-09-23T09:26:11.395Z,15.70
2018-09-23T09:31:16.450Z,16.70
2018-09-23T09:36:21.477Z,14.67
2018-09-23T09:41:26.449Z,16.87
2018-09-23T09:46:31.373Z,17.07
2018-09-23T09:51:36.334Z,18.40
2018-09-23T09:56:41.380Z,22.50
2018-09-23T10:01:46.378Z,21.83
2018-09-23T10:06:51.444Z,21.40
2018-09-23T10:11:56.428Z,22.83
2018-09-23T10:17:01.364Z,23.30
2018-09-23T10:22:06.265Z,24.00
2018-09-23T10:27:11.135Z,23.80
2018-09-23T10:32:16.017Z,22.40
2018-09-23T10:37:21.158Z,19.75
2018-09-23T10:42:26.762Z,18.32
2018-09-23T10:47:31.672Z,19.00
2018-09-23T10:52:36.572Z,19.57
2018-09-23T10:57:41.617Z,18.40
2018-09-23T11:02:46.886Z,16.90
2018-09-23T11:07:51.765Z,15.05
2018-09-23T11:12:56.743Z,16.17
2018-09-23T11:18:01.635Z,15.85
2018-09-23T11:23:06.580Z,15.20
2018-09-23T11:28:11.627Z,14.43
2018-09-23T11:33:16.517Z,16.35
2018-09-23T11:38:21.582Z,16.48
2018-09-23T11:43:26.728Z,17.23
2018-09-23T11:48:31.880Z,15.55
2018-09-23T11:53:36.765Z,16.32
2018-09-23T11:58:42.847Z,15.65
2018-09-23T12:03:49.787Z,17.95
2018-09-23T12:08:54.642Z,17.15
2018-09-23T12:13:59.792Z,17.12
2018-09-23T12:19:04.982Z,17.55
2018-09-23T12:24:09.908Z,14.13
2018-09-23T12:29:14.750Z,15.90
2018-09-23T12:34:19.652Z,13.30
2018-09-23T12:39:24.845Z,13.88
2018-09-23T12:44:29.750Z,11.53
2018-09-23T12:49:34.789Z,7.28
2018-09-23T12:54:39.807Z,7.15
2018-09-23T12:59:44.849Z,9.88
2018-09-23T13:04:49.910Z,5.30
2018-09-23T13:09:54.967Z,5.53
2018-09-23T13:15:00.100Z,5.00
2018-09-23T13:20:05.186Z,6.25
2018-09-23T13:25:10.146Z,7.62
2018-09-23T13:30:15.617Z,7.35
2018-09-23T13:35:20.784Z,8.70
2018-09-23T13:40:25.817Z,9.75
2018-09-23T13:45:30.817Z,11.20
2018-09-23T13:50:35.740Z,10.55
2018-09-23T13:55:40.692Z,10.03
2018-09-23T14:00:45.788Z,10.10
2018-09-23T14:05:50.744Z,9.65
2018-09-23T14:10:55.722Z,9.43
2018-09-23T14:16:00.576Z,8.23
2018-09-23T14:21:05.600Z,8.10
2018-09-23T14:26:10.553Z,7.55
2018-09-23T14:31:15.488Z,7.70
2018-09-23T14:36:20.533Z,8.43
2018-09-23T14:41:25.557Z,6.83
2018-09-23T14:46:30.525Z,7.00
2018-09-23T15:19:28.081Z,7.03
2018-09-23T15:24:38.577Z,5.47
2018-09-23T15:29:48.926Z,4.80
2018-09-23T15:34:59.490Z,5.20
2018-09-23T15:40:09.820Z,5.08
2018-09-23T15:45:20.324Z,5.35
2018-09-23T15:50:31.830Z,5.40
2018-09-23T15:55:42.095Z,5.58
2018-09-23T16:00:52.537Z,5.75
2018-09-23T16:06:03.090Z,6.10
2018-09-23T16:11:13.373Z,6.25
2018-09-23T16:16:23.656Z,6.73
2018-09-23T16:21:34.177Z,6.73
2018-09-23T16:26:44.598Z,6.63
2018-09-23T16:31:55.114Z,6.43
2018-09-23T16:37:05.434Z,6.10
2018-09-23T16:42:17.036Z,5.43
2018-09-23T16:47:27.478Z,5.60
2018-09-23T16:52:37.992Z,4.97
2018-09-23T18:05:18.033Z,4.63
2018-09-23T18:10:23.212Z,5.27
2018-09-23T18:15:28.207Z,5.07
2018-09-23T18:20:33.366Z,5.00
2018-09-23T18:25:38.237Z,4.87
2018-09-23T18:30:45.069Z,6.37
2018-09-23T18:35:50.281Z,6.90
2018-09-23T18:40:55.647Z,6.40
2018-09-23T18:46:01.275Z,6.63
2018-09-23T18:51:06.655Z,7.17
2018-09-23T18:56:13.265Z,6.30
2018-09-23T19:01:18.620Z,6.77
2018-09-23T19:06:24.065Z,7.63
2018-09-23T19:11:29.210Z,7.13
2018-09-23T19:16:36.239Z,7.00
2018-09-23T19:21:42.896Z,7.37
2018-09-23T19:26:49.387Z,8.10
2018-09-23T19:31:55.142Z,7.23
2018-09-23T19:37:01.358Z,7.37
2018-09-23T19:42:08.394Z,7.60
2018-09-23T19:47:14.209Z,6.97
2018-09-23T19:52:20.543Z,7.23
2018-09-23T19:57:26.820Z,6.23
2018-09-23T20:02:32.816Z,6.83
2018-09-23T20:07:39.478Z,13.30
2018-09-23T20:12:45.190Z,8.33
2018-09-23T20:17:51.044Z,6.67
2018-09-23T20:22:56.720Z,7.53
2018-09-23T20:28:03.475Z,7.37
2018-09-23T20:33:09.434Z,7.70
2018-09-23T20:38:15.317Z,7.67
2018-09-23T20:43:22.140Z,7.70
2018-09-23T20:48:27.098Z,8.57
2018-09-23T20:53:32.213Z,7.23
2018-09-23T20:58:37.207Z,8.60
2018-09-23T21:03:42.120Z,7.83
2018-09-23T21:08:47.503Z,8.00
2018-09-23T21:13:52.399Z,7.77
2018-09-23T21:18:57.973Z,8.03
2018-09-23T21:24:03.403Z,7.60
2018-09-23T21:29:08.904Z,7.87
2018-09-23T21:34:14.071Z,8.07
2018-09-23T21:39:19.618Z,8.53
2018-09-23T21:44:24.996Z,8.60
2018-09-23T21:49:29.974Z,8.60
2018-09-23T21:54:35.061Z,8.60
2018-09-23T21:59:40.143Z,8.60
2018-09-23T22:04:45.052Z,7.97
2018-09-23T22:09:50.267Z,8.50
2018-09-23T22:14:55.733Z,7.67
2018-09-23T22:20:00.725Z,7.70
2018-09-23T22:25:06.320Z,8.30
2018-09-23T22:30:11.318Z,8.57
2018-09-23T22:35:16.268Z,9.27
2018-09-23T22:40:21.674Z,9.33
2018-09-23T22:45:26.628Z,10.33
2018-09-23T22:50:32.851Z,9.30
2018-09-23T22:55:40.500Z,9.30
2018-09-23T23:00:45.781Z,9.53
2018-09-23T23:05:51.060Z,8.67
2018-09-23T23:10:56.185Z,9.23
2018-09-23T23:16:01.222Z,9.27
2018-09-23T23:21:06.378Z,9.47
2018-09-23T23:26:11.260Z,10.20
2018-09-23T23:31:16.118Z,9.27
2018-09-23T23:36:21.094Z,9.60
2018-09-23T23:41:26.108Z,9.33
2018-09-23T23:46:31.038Z,9.77
2018-09-23T23:51:36.096Z,9.50
2018-09-23T23:56:41.112Z,9.50
